Delta Virtual Airport Information Service

London Heathrow Airport

ICAO: EGLL Country: United Kingdom
Latitude: 51.4775 Longitude: -0.46138
Latest Arrival : BAW114 (KJFK-EGLL) Latest Departure : AAL39 (2) (EGLL-KMIA)


WX CaptureLIVE
Data provided by noaa.gov | Fetched at 22:19:37

METAR : EGLL 240250Z AUTO 18006KT 9999 FEW024 BKN049 09/06 Q1008 NOSIG

TAF : EGLL 232307Z 2400/2506 20006KT 9999 FEW040 BECMG 2409/2412 19020G30KT PROB30 TEMPO 2410/2416 7000 -RA BKN014 PROB30 TEMPO 2415/2418 20024G40KT TEMPO 2416/2424 6000 RA SHRA PROB40 TEMPO 2416/2424 3000 +SHRA BKN012 BECMG 2417/2419 19012KT TEMPO 2419/2424 20015G25KT PROB30 TEMPO 2419/2422 20020G35KT


Runway Data for EGLL
Data provided by openaviationdata.com

Runway ID Mag Var Hdg Length Elevation Surface ILS Freq ILS Id ILS Slope
09L -1 90° 13160 ft 83 ft Asphalt 110.3 IAA 3
09R -1 91° 12396 ft 83 ft Asphalt 109.5 IBB 3
27L -1 271° 12396 ft 83 ft Asphalt 109.5 ILL 3
27R -1 270° 13160 ft 83 ft Asphalt 110.3 IRR 3

London Heathrow Airport, United Kingdom
Use only for reference purposes



Not for navigational purposes.